createdAt,value
2022-08-08T00:00:50.359Z,1.20
2022-08-08T00:03:31.440Z,1.10
2022-08-08T00:06:07.770Z,1.10
2022-08-08T00:08:51.158Z,0.90
2022-08-08T00:12:23.723Z,0.97
2022-08-08T00:15:05.097Z,1.10
2022-08-08T00:17:58.541Z,1.40
2022-08-08T00:20:42.687Z,1.00
2022-08-08T00:23:20.753Z,1.23
2022-08-08T00:25:58.563Z,0.90
2022-08-08T00:28:48.865Z,1.17
2022-08-08T00:32:20.397Z,0.97
2022-08-08T00:35:03.984Z,0.80
2022-08-08T00:38:02.781Z,1.10
2022-08-08T00:41:10.077Z,1.10
2022-08-08T00:44:03.538Z,0.90
2022-08-08T00:47:04.422Z,1.27
2022-08-08T00:50:00.237Z,1.00
2022-08-08T00:52:51.513Z,1.00
2022-08-08T00:55:53.262Z,1.17
2022-08-08T00:58:34.614Z,1.30
2022-08-08T01:01:14.679Z,1.63
2022-08-08T01:04:19.826Z,1.03
2022-08-08T01:07:23.645Z,1.03
2022-08-08T01:10:37.110Z,1.20
2022-08-08T01:13:53.074Z,1.17
2022-08-08T01:16:47.490Z,1.30
2022-08-08T01:20:02.418Z,1.43
2022-08-08T01:23:01.607Z,1.40
2022-08-08T01:25:40.045Z,1.43
2022-08-08T01:28:42.543Z,1.43
2022-08-08T01:32:16.269Z,1.57
2022-08-08T01:34:46.458Z,1.50
2022-08-08T01:37:57.250Z,1.30
2022-08-08T01:41:11.497Z,1.40
2022-08-08T01:43:44.602Z,1.40
2022-08-08T01:46:40.547Z,1.90
2022-08-08T01:49:57.063Z,1.33
2022-08-08T01:54:04.668Z,1.40
2022-08-08T01:56:28.946Z,1.53
2022-08-08T01:58:52.913Z,1.50
2022-08-08T02:02:34.294Z,1.47
2022-08-08T02:05:33.832Z,1.40
2022-08-08T02:08:18.150Z,1.20
2022-08-08T02:11:23.468Z,1.43
2022-08-08T02:14:49.797Z,1.40
2022-08-08T02:17:42.902Z,1.20
2022-08-08T02:21:01.063Z,1.40
2022-08-08T02:23:18.402Z,1.23
2022-08-08T02:26:02.277Z,1.50
2022-08-08T02:29:09.151Z,1.23
2022-08-08T02:32:05.625Z,1.30
2022-08-08T02:35:10.735Z,1.17
2022-08-08T02:38:09.088Z,1.40
2022-08-08T02:41:58.145Z,1.33
2022-08-08T02:44:37.344Z,1.10
2022-08-08T02:47:47.060Z,1.40
2022-08-08T02:50:42.058Z,0.80
2022-08-08T02:53:26.705Z,1.37
2022-08-08T02:56:20.253Z,1.10
2022-08-08T02:59:37.242Z,0.93
2022-08-08T03:02:50.858Z,1.13
2022-08-08T03:05:53.382Z,1.70
2022-08-08T03:08:58.384Z,1.20
2022-08-08T03:12:01.576Z,1.50
2022-08-08T03:15:59.222Z,1.30
2022-08-08T03:18:31.275Z,1.20
2022-08-08T03:21:01.598Z,1.47
2022-08-08T03:23:56.196Z,1.30
2022-08-08T03:26:42.773Z,1.30
2022-08-08T03:29:21.066Z,1.17
2022-08-08T03:32:14.230Z,1.30
2022-08-08T03:34:41.973Z,1.50
2022-08-08T03:38:00.255Z,1.40
2022-08-08T03:40:30.257Z,1.60
2022-08-08T03:43:15.785Z,1.20
2022-08-08T03:46:05.260Z,1.50
2022-08-08T03:49:09.774Z,1.20
2022-08-08T03:51:40.122Z,1.27
2022-08-08T03:54:15.537Z,1.23
2022-08-08T03:58:31.267Z,1.30
2022-08-08T04:00:02.619Z,1.13
2022-08-08T04:02:47.473Z,1.40
2022-08-08T04:05:27.431Z,1.20
2022-08-08T04:07:58.919Z,1.40
2022-08-08T04:10:32.871Z,1.30
2022-08-08T04:13:17.979Z,1.27
2022-08-08T04:15:54.809Z,1.17
2022-08-08T04:18:44.752Z,1.30
2022-08-08T04:21:22.960Z,1.10
2022-08-08T04:24:11.640Z,1.27
2022-08-08T04:26:57.490Z,1.40
2022-08-08T04:29:36.792Z,1.50
2022-08-08T04:32:08.305Z,1.10
2022-08-08T04:34:42.949Z,1.40
2022-08-08T04:37:49.089Z,1.40
2022-08-08T04:40:36.489Z,1.60
2022-08-08T04:43:05.513Z,1.70
2022-08-08T05:01:35.331Z,1.37
2022-08-08T05:04:10.766Z,1.40
2022-08-08T05:06:43.071Z,1.43
2022-08-08T05:09:12.045Z,1.40
2022-08-08T05:11:42.218Z,1.40
2022-08-08T05:14:15.807Z,1.53
2022-08-08T05:17:00.384Z,1.50
2022-08-08T05:20:10.666Z,1.20
2022-08-08T05:22:27.545Z,1.40
2022-08-08T05:24:56.186Z,1.67
2022-08-08T05:27:25.060Z,1.20
2022-08-08T05:29:53.941Z,1.33
2022-08-08T05:32:27.262Z,1.33
2022-08-08T05:35:01.594Z,1.70
2022-08-08T05:37:49.318Z,1.90
2022-08-08T05:40:28.477Z,2.37
2022-08-08T05:43:38.610Z,1.50
2022-08-08T05:58:57.929Z,1.60
2022-08-08T06:01:55.533Z,1.50
2022-08-08T06:04:29.300Z,1.70
2022-08-08T06:07:01.891Z,1.60
2022-08-08T06:10:00.360Z,1.37
2022-08-08T06:12:30.847Z,1.40
2022-08-08T06:15:03.054Z,1.40
2022-08-08T06:17:51.024Z,1.70
2022-08-08T06:20:26.652Z,1.60
2022-08-08T06:22:56.335Z,1.90
2022-08-08T06:25:33.245Z,1.80
2022-08-08T06:28:31.011Z,1.80
2022-08-08T06:32:10.778Z,1.80
2022-08-08T06:34:29.619Z,1.40
2022-08-08T06:37:24.116Z,1.60
2022-08-08T06:39:56.713Z,1.80
2022-08-08T06:42:30.417Z,1.90
2022-08-08T06:45:05.378Z,1.70
2022-08-08T06:47:58.349Z,2.20
2022-08-08T06:50:31.915Z,1.60
2022-08-08T06:53:10.181Z,1.27
2022-08-08T06:56:02.571Z,1.73
2022-08-08T06:58:54.531Z,1.57
2022-08-08T07:02:27.323Z,1.50
2022-08-08T07:04:37.066Z,1.40
2022-08-08T07:07:12.314Z,1.33
2022-08-08T07:09:59.439Z,1.40
2022-08-08T07:12:48.015Z,1.50
2022-08-08T07:15:41.036Z,1.50
2022-08-08T07:18:35.753Z,1.47
2022-08-08T07:25:38.002Z,1.20
2022-08-08T07:29:20.438Z,1.40
2022-08-08T07:32:50.158Z,1.63
2022-08-08T07:35:18.345Z,1.80
2022-08-08T07:38:10.301Z,1.50
2022-08-08T07:42:03.471Z,1.30
2022-08-08T07:45:26.555Z,1.30
2022-08-08T07:48:42.413Z,1.50
2022-08-08T07:51:53.034Z,1.40
2022-08-08T07:54:39.732Z,1.60
2022-08-08T07:58:12.798Z,1.20
2022-08-08T08:00:51.890Z,1.27
2022-08-08T08:03:41.528Z,1.20
2022-08-08T08:06:16.467Z,1.00
2022-08-08T08:09:33.074Z,1.30
2022-08-08T08:12:35.349Z,1.03
2022-08-08T08:16:04.152Z,1.20
2022-08-08T08:18:56.049Z,1.42
2022-08-08T08:21:52.839Z,0.90
2022-08-08T08:24:52.373Z,1.00
2022-08-08T08:27:22.433Z,1.20
2022-08-08T08:29:59.424Z,0.90
2022-08-08T08:32:41.203Z,1.15
2022-08-08T08:36:19.150Z,1.10
2022-08-08T08:43:15.198Z,1.00
2022-08-08T08:46:32.637Z,1.23
2022-08-08T08:50:31.728Z,0.85
2022-08-08T08:53:55.572Z,1.42
2022-08-08T08:56:23.825Z,0.80
2022-08-08T08:58:57.138Z,1.02
2022-08-08T09:01:43.898Z,1.38
2022-08-08T09:04:30.291Z,0.80
2022-08-08T09:07:08.776Z,1.10
2022-08-08T09:09:48.179Z,1.00
2022-08-08T09:12:27.296Z,1.00
2022-08-08T09:14:56.909Z,1.40
2022-08-08T09:17:40.770Z,0.82
2022-08-08T09:22:04.770Z,1.10
2022-08-08T09:23:04.687Z,1.13
2022-08-08T09:25:54.646Z,1.20
2022-08-08T09:28:37.981Z,0.93
2022-08-08T09:31:16.820Z,1.00
2022-08-08T09:34:06.294Z,1.02
2022-08-08T09:37:10.184Z,1.10
2022-08-08T09:39:40.985Z,0.70
2022-08-08T09:42:21.753Z,1.08
2022-08-08T09:45:15.825Z,1.00
2022-08-08T09:48:16.062Z,0.80
2022-08-08T09:50:51.351Z,1.10
2022-08-08T09:53:31.895Z,1.00
2022-08-08T09:56:22.266Z,1.25
2022-08-08T09:59:15.268Z,1.38
2022-08-08T10:01:58.470Z,1.30
2022-08-08T10:04:38.460Z,1.50
2022-08-08T10:07:15.491Z,1.15
2022-08-08T10:09:58.759Z,0.90
2022-08-08T10:12:53.842Z,1.13
2022-08-08T10:15:26.622Z,1.13
2022-08-08T10:18:10.409Z,1.10
2022-08-08T10:20:57.944Z,0.80
2022-08-08T10:23:59.820Z,1.10
2022-08-08T10:26:56.980Z,1.00
2022-08-08T10:29:56.999Z,1.10
2022-08-08T10:32:39.051Z,1.10
2022-08-08T10:36:06.496Z,1.40
2022-08-08T10:38:07.855Z,1.17
2022-08-08T10:40:38.475Z,1.00
2022-08-08T10:43:07.200Z,1.13
2022-08-08T10:45:56.222Z,1.10
2022-08-08T10:48:57.227Z,1.30
2022-08-08T10:51:31.282Z,1.07
2022-08-08T10:54:08.400Z,1.73
2022-08-08T10:56:42.870Z,1.07
2022-08-08T10:59:12.120Z,0.95
2022-08-08T11:01:54.352Z,1.20
2022-08-08T11:04:29.814Z,1.30
2022-08-08T11:07:06.891Z,1.20
2022-08-08T11:09:35.192Z,1.27
2022-08-08T11:12:13.027Z,1.20
2022-08-08T11:15:00.433Z,1.10
2022-08-08T11:17:59.315Z,1.02
2022-08-08T11:20:28.870Z,1.10
2022-08-08T11:23:05.605Z,1.05
2022-08-08T11:25:52.211Z,0.90
2022-08-08T11:28:25.972Z,1.40
2022-08-08T11:30:59.908Z,1.10
2022-08-08T11:33:51.977Z,1.10
2022-08-08T11:36:16.344Z,0.98
2022-08-08T11:38:55.138Z,1.15
2022-08-08T11:41:28.113Z,1.10
2022-08-08T11:44:00.887Z,1.20
2022-08-08T11:46:30.354Z,0.90
2022-08-08T11:49:04.317Z,0.90
2022-08-08T11:51:39.737Z,1.13
2022-08-08T11:54:31.709Z,1.20
2022-08-08T11:57:27.922Z,1.58
2022-08-08T12:00:06.207Z,1.30
2022-08-08T12:02:54.618Z,1.10
2022-08-08T12:05:36.928Z,1.33
2022-08-08T12:08:05.058Z,1.35
2022-08-08T12:10:33.462Z,1.30
2022-08-08T12:13:10.058Z,1.15
2022-08-08T12:15:47.008Z,3.00
2022-08-08T12:18:21.215Z,3.22
2022-08-08T12:20:50.712Z,1.10
2022-08-08T12:23:43.932Z,0.90
2022-08-08T12:26:28.425Z,1.50
2022-08-08T12:29:40.889Z,1.13
2022-08-08T12:32:19.581Z,1.10
2022-08-08T12:35:01.180Z,1.10
2022-08-08T12:37:41.248Z,1.10
2022-08-08T12:40:22.471Z,0.88
2022-08-08T12:42:52.269Z,1.02
2022-08-08T12:45:57.921Z,1.00
2022-08-08T12:48:37.874Z,1.50
2022-08-08T12:51:11.637Z,1.10
2022-08-08T12:53:59.708Z,1.20
2022-08-08T12:56:38.353Z,1.10
2022-08-08T12:59:44.455Z,1.10
2022-08-08T13:02:28.668Z,1.23
2022-08-08T13:04:58.953Z,1.00
2022-08-08T13:08:03.681Z,1.00
2022-08-08T13:10:36.328Z,1.00
2022-08-08T13:13:08.195Z,0.82
2022-08-08T13:15:36.544Z,1.00
2022-08-08T13:18:10.719Z,1.15
2022-08-08T13:20:45.785Z,0.80
2022-08-08T13:23:35.864Z,0.90
2022-08-08T13:26:13.304Z,0.80
2022-08-08T13:28:45.809Z,0.80
2022-08-08T13:31:17.340Z,1.42
2022-08-08T13:33:50.175Z,1.00
2022-08-08T13:36:26.313Z,0.80
2022-08-08T13:39:00.133Z,1.13
2022-08-08T13:41:39.277Z,1.00
2022-08-08T13:44:12.903Z,1.02
2022-08-08T13:46:41.301Z,0.80
2022-08-08T13:50:36.015Z,1.20
2022-08-08T13:52:07.621Z,1.30
2022-08-08T13:54:44.445Z,1.13
2022-08-08T13:57:17.254Z,1.00
2022-08-08T14:00:24.408Z,1.33
2022-08-08T14:03:14.955Z,1.00
2022-08-08T14:06:00.610Z,0.90
2022-08-08T14:08:30.206Z,1.07
2022-08-08T14:11:02.367Z,1.17
2022-08-08T14:13:33.117Z,1.02
2022-08-08T14:16:03.323Z,1.10
2022-08-08T14:18:35.510Z,1.13
2022-08-08T14:21:20.367Z,1.00
2022-08-08T14:24:04.366Z,1.10
2022-08-08T14:26:46.123Z,0.90
2022-08-08T14:29:28.826Z,0.93
2022-08-08T14:32:10.033Z,1.20
2022-08-08T14:34:42.494Z,1.00
2022-08-08T14:37:12.531Z,1.20
2022-08-08T14:40:05.687Z,1.10
2022-08-08T14:42:54.955Z,0.95
2022-08-08T14:46:01.497Z,0.93
2022-08-08T14:48:34.972Z,1.08
2022-08-08T14:51:07.675Z,1.20
2022-08-08T14:53:55.888Z,1.00
2022-08-08T14:56:25.804Z,1.10
2022-08-08T14:58:54.990Z,1.20
2022-08-08T15:01:37.699Z,1.13
2022-08-08T15:04:10.691Z,1.30
2022-08-08T15:06:39.237Z,1.00
2022-08-08T15:09:10.145Z,1.20
2022-08-08T15:11:43.342Z,0.90
2022-08-08T15:14:14.924Z,1.50
2022-08-08T15:16:44.437Z,1.20
2022-08-08T15:19:14.939Z,1.30
2022-08-08T15:21:44.514Z,1.33
2022-08-08T15:24:14.449Z,0.98
2022-08-08T15:26:52.361Z,1.10
2022-08-08T15:29:22.692Z,1.35
2022-08-08T15:32:17.654Z,1.23
2022-08-08T15:34:40.740Z,1.45
2022-08-08T15:37:08.444Z,1.25
2022-08-08T15:39:39.672Z,1.38
2022-08-08T15:42:13.456Z,1.30
2022-08-08T15:44:55.529Z,1.35
2022-08-08T15:47:23.870Z,1.00
2022-08-08T15:49:53.129Z,1.55
2022-08-08T15:52:22.680Z,1.50
2022-08-08T15:54:53.311Z,1.30
2022-08-08T15:57:21.943Z,1.25
2022-08-08T16:00:06.178Z,1.17
2022-08-08T16:02:50.281Z,1.40
2022-08-08T16:05:20.423Z,1.35
2022-08-08T16:07:53.033Z,1.52
2022-08-08T16:13:02.255Z,1.90
2022-08-08T16:13:30.916Z,1.35
2022-08-08T16:16:09.692Z,1.23
2022-08-08T16:18:56.620Z,1.43
2022-08-08T16:21:28.137Z,1.30
2022-08-08T16:23:58.288Z,1.00
2022-08-08T16:26:34.460Z,1.50
2022-08-08T16:29:15.411Z,1.02
2022-08-08T16:31:49.099Z,1.27
2022-08-08T16:34:19.590Z,1.20
2022-08-08T16:36:50.522Z,3.00
2022-08-08T16:40:00.302Z,1.42
2022-08-08T16:42:17.655Z,2.50
2022-08-08T16:44:54.234Z,3.43
2022-08-08T16:47:41.444Z,1.17
2022-08-08T16:50:15.823Z,1.50
2022-08-08T16:55:06.676Z,1.93
2022-08-08T16:55:55.676Z,2.35
2022-08-08T16:58:27.126Z,1.20
2022-08-08T17:01:09.337Z,1.40
2022-08-08T17:03:59.382Z,1.40
2022-08-08T17:06:37.071Z,1.42
2022-08-08T17:09:07.347Z,1.40
2022-08-08T17:11:49.111Z,1.40
2022-08-08T17:14:27.168Z,1.50
2022-08-08T17:17:03.134Z,1.20
2022-08-08T17:19:40.804Z,1.50
2022-08-08T17:22:10.112Z,1.40
2022-08-08T17:24:37.537Z,2.55
2022-08-08T17:27:05.417Z,1.73
2022-08-08T17:29:36.493Z,1.47
2022-08-08T17:32:11.194Z,1.50
2022-08-08T17:35:14.579Z,1.67
2022-08-08T17:37:27.610Z,1.33
2022-08-08T17:40:10.986Z,1.30
2022-08-08T17:42:46.737Z,1.20
2022-08-08T17:45:22.485Z,1.60
2022-08-08T17:48:30.785Z,1.20
2022-08-08T17:51:18.047Z,1.33
2022-08-08T17:53:45.678Z,1.40
2022-08-08T17:56:26.166Z,1.45
2022-08-08T17:58:53.706Z,1.40
2022-08-08T18:01:29.931Z,1.73
2022-08-08T18:04:09.099Z,1.37
2022-08-08T18:06:43.335Z,1.80
2022-08-08T18:09:14.040Z,1.47
2022-08-08T18:11:43.112Z,1.70
2022-08-08T18:14:21.907Z,1.37
2022-08-08T18:16:54.213Z,1.30
2022-08-08T18:19:22.797Z,1.40
2022-08-08T18:22:01.693Z,1.40
2022-08-08T18:24:31.097Z,1.10
2022-08-08T18:27:00.646Z,1.50
2022-08-08T18:29:36.769Z,1.53
2022-08-08T18:32:06.601Z,1.25
2022-08-08T18:34:36.183Z,1.40
2022-08-08T18:37:08.211Z,1.50
2022-08-08T18:39:41.950Z,1.53
2022-08-08T18:42:14.419Z,1.20
2022-08-08T18:44:55.256Z,1.60
2022-08-08T18:47:27.997Z,1.37
2022-08-08T18:50:00.199Z,1.73
2022-08-08T18:52:29.685Z,1.30
2022-08-08T18:55:00.986Z,1.70
2022-08-08T18:57:41.046Z,1.70
2022-08-08T19:00:19.743Z,1.67
2022-08-08T19:02:56.703Z,1.27
2022-08-08T19:05:38.425Z,1.50
2022-08-08T19:08:25.016Z,1.63
2022-08-08T19:10:58.401Z,1.50
2022-08-08T19:13:53.561Z,1.40
2022-08-08T19:16:19.520Z,1.60
2022-08-08T19:18:53.416Z,1.37
2022-08-08T19:21:30.880Z,1.60
2022-08-08T19:24:05.684Z,1.10
2022-08-08T19:26:37.500Z,2.07
2022-08-08T19:29:05.760Z,1.60
2022-08-08T19:31:35.507Z,1.60
2022-08-08T19:34:35.427Z,1.43
2022-08-08T19:36:58.767Z,1.40
2022-08-08T19:39:35.566Z,1.40
2022-08-08T19:42:04.899Z,1.83
2022-08-08T19:44:43.061Z,1.70
2022-08-08T19:47:14.559Z,1.57
2022-08-08T19:49:43.095Z,1.37
2022-08-08T19:52:13.498Z,1.43
2022-08-08T19:54:43.153Z,1.40
2022-08-08T19:57:14.213Z,1.30
2022-08-08T19:59:43.745Z,1.73
2022-08-08T20:02:11.824Z,1.30
2022-08-08T20:04:39.734Z,1.63
2022-08-08T20:08:28.312Z,1.60
2022-08-08T20:09:59.759Z,1.50
2022-08-08T20:12:32.271Z,1.60
2022-08-08T20:15:14.881Z,1.40
2022-08-08T20:17:46.818Z,1.40
2022-08-08T20:20:19.628Z,1.37
2022-08-08T20:22:54.126Z,1.37
2022-08-08T20:25:26.350Z,1.10
2022-08-08T20:28:01.033Z,1.27
2022-08-08T20:30:38.958Z,1.00
2022-08-08T20:35:57.533Z,1.50
2022-08-08T20:38:32.538Z,1.20
2022-08-08T20:41:05.925Z,2.10
2022-08-08T20:43:48.163Z,1.50
2022-08-08T20:46:17.386Z,1.43
2022-08-08T20:48:47.822Z,1.10
2022-08-08T20:51:15.195Z,1.37
2022-08-08T20:53:59.826Z,1.63
2022-08-08T20:56:35.202Z,1.70
2022-08-08T20:59:06.340Z,1.50
2022-08-08T21:02:05.436Z,1.57
2022-08-08T21:04:27.341Z,1.03
2022-08-08T21:06:55.939Z,1.40
2022-08-08T21:09:31.768Z,1.60
2022-08-08T21:12:12.211Z,1.40
2022-08-08T21:14:39.643Z,1.40
2022-08-08T21:17:21.473Z,1.23
2022-08-08T21:19:49.023Z,1.43
2022-08-08T21:22:16.799Z,1.47
2022-08-08T21:24:52.781Z,1.40
2022-08-08T21:28:05.778Z,1.30
2022-08-08T21:30:19.226Z,1.50
2022-08-08T21:32:58.093Z,1.40
2022-08-08T21:36:14.450Z,1.53
2022-08-08T21:38:16.939Z,1.30
2022-08-08T21:40:55.752Z,1.73
2022-08-08T21:43:33.627Z,1.37
2022-08-08T21:48:06.098Z,1.80
2022-08-08T21:48:55.666Z,1.80
2022-08-08T21:54:17.428Z,1.80
2022-08-08T21:54:31.998Z,1.80
2022-08-08T21:57:04.056Z,1.80
2022-08-08T22:00:03.257Z,1.90
2022-08-08T22:02:19.229Z,1.90
2022-08-08T22:04:55.673Z,2.40
2022-08-08T22:07:39.804Z,2.40
2022-08-08T22:10:18.528Z,2.57
2022-08-08T22:13:16.675Z,2.20
2022-08-08T22:15:58.856Z,2.37
2022-08-08T22:18:32.966Z,2.17
2022-08-08T22:21:11.092Z,2.10
2022-08-08T22:23:50.940Z,2.03
2022-08-08T22:26:28.903Z,2.20
2022-08-08T22:29:14.712Z,2.10
2022-08-08T22:32:01.707Z,2.20
2022-08-08T22:34:32.477Z,1.90
2022-08-08T22:37:00.525Z,2.10
2022-08-08T22:40:00.831Z,2.27
2022-08-08T22:42:31.662Z,2.30
2022-08-08T22:44:59.774Z,2.30
2022-08-08T22:47:37.708Z,2.10
2022-08-08T22:50:21.683Z,2.33
2022-08-08T22:54:30.866Z,1.90
2022-08-08T22:55:59.158Z,2.27
2022-08-08T22:58:32.816Z,2.40
2022-08-08T23:02:02.054Z,2.00
2022-08-08T23:03:54.975Z,2.07
2022-08-08T23:06:24.885Z,2.00
2022-08-08T23:08:56.088Z,1.90
2022-08-08T23:11:31.438Z,1.90
2022-08-08T23:14:21.145Z,1.87
2022-08-08T23:16:54.840Z,1.77
2022-08-08T23:19:32.253Z,1.90
2022-08-08T23:22:05.277Z,2.03
2022-08-08T23:24:41.451Z,2.13
2022-08-08T23:27:11.351Z,1.70
2022-08-08T23:29:58.960Z,2.00
2022-08-08T23:32:29.459Z,2.07
2022-08-08T23:34:59.176Z,1.83
2022-08-08T23:38:02.107Z,2.40
2022-08-08T23:40:15.423Z,1.93
2022-08-08T23:42:45.101Z,2.23
2022-08-08T23:45:12.778Z,1.90
2022-08-08T23:49:08.143Z,2.00
2022-08-08T23:50:30.001Z,2.00
2022-08-08T23:53:03.609Z,2.07
2022-08-08T23:55:33.389Z,2.00
2022-08-08T23:58:09.645Z,1.97
